Tennis, South Dakota
Current Conditions -  °F | °C
As of 2:31 PM on Wednesday 26 Nov 2014 (Local Time) from KPIR Reporting Station
Overcast Overcast  
Wind Chill: 13°   Ceiling: 3700
Heat Index: 21°   Visibility: 10mi
Dew Point: 12°   Wind: 6mph
Humidity: 68%   Direction: 30°NNE
Pressure: 30.34"   Gusts: NA
Location:  44.5493°N, 99.483°W
Report Text: KPIR 262031Z AUTO 03005KT 10SM SCT029 OVC037 M06/M11 A3034 RMK AO2 T10611111
Loading
Personal Weather Stations






























Interactive Weather Map New forecast layout! Learn more

10-Day Weather Forecast

Advertisements
Track Severe Weather on mobile